sensor_id;sensor_type;location;lat;lon;timestamp;P1;durP1;ratioP1;P2;durP2;ratioP2
7517;SDS011;3800;48.922;9.444;2023-03-15T00:01:16;4.57;;;3.63;;
7517;SDS011;3800;48.922;9.444;2023-03-15T00:03:42;4.87;;;3.77;;
7517;SDS011;3800;48.922;9.444;2023-03-15T00:06:10;4.10;;;3.70;;
7517;SDS011;3800;48.922;9.444;2023-03-15T00:08:38;4.53;;;3.67;;
7517;SDS011;3800;48.922;9.444;2023-03-15T00:11:06;4.77;;;3.80;;
7517;SDS011;3800;48.922;9.444;2023-03-15T00:13:34;6.97;;;3.80;;
7517;SDS011;3800;48.922;9.444;2023-03-15T00:16:02;5.17;;;3.60;;
7517;SDS011;3800;48.922;9.444;2023-03-15T00:18:30;5.63;;;4.10;;
7517;SDS011;3800;48.922;9.444;2023-03-15T00:20:58;6.00;;;4.50;;
7517;SDS011;3800;48.922;9.444;2023-03-15T00:23:27;6.67;;;4.30;;
7517;SDS011;3800;48.922;9.444;2023-03-15T00:25:54;5.60;;;4.23;;
7517;SDS011;3800;48.922;9.444;2023-03-15T00:28:22;5.40;;;3.90;;
7517;SDS011;3800;48.922;9.444;2023-03-15T00:31:00;4.60;;;4.10;;
7517;SDS011;3800;48.922;9.444;2023-03-15T00:33:18;5.20;;;4.70;;
7517;SDS011;3800;48.922;9.444;2023-03-15T00:35:46;5.80;;;4.77;;
7517;SDS011;3800;48.922;9.444;2023-03-15T00:38:14;5.03;;;4.57;;
7517;SDS011;3800;48.922;9.444;2023-03-15T00:40:41;6.23;;;5.13;;
7517;SDS011;3800;48.922;9.444;2023-03-15T00:43:09;8.43;;;5.23;;
7517;SDS011;3800;48.922;9.444;2023-03-15T00:45:36;8.43;;;5.53;;
7517;SDS011;3800;48.922;9.444;2023-03-15T00:48:05;9.90;;;5.43;;
7517;SDS011;3800;48.922;9.444;2023-03-15T00:50:33;7.60;;;5.07;;
7517;SDS011;3800;48.922;9.444;2023-03-15T00:53:00;6.63;;;5.70;;
7517;SDS011;3800;48.922;9.444;2023-03-15T00:55:29;6.60;;;5.87;;
7517;SDS011;3800;48.922;9.444;2023-03-15T00:57:56;5.93;;;5.03;;
7517;SDS011;3800;48.922;9.444;2023-03-15T01:00:24;7.40;;;5.63;;
7517;SDS011;3800;48.922;9.444;2023-03-15T01:02:52;9.60;;;5.60;;
7517;SDS011;3800;48.922;9.444;2023-03-15T01:05:19;7.23;;;6.50;;
7517;SDS011;3800;48.922;9.444;2023-03-15T01:07:47;7.63;;;6.50;;
7517;SDS011;3800;48.922;9.444;2023-03-15T01:10:16;6.90;;;5.90;;
7517;SDS011;3800;48.922;9.444;2023-03-15T01:12:43;8.53;;;6.70;;
7517;SDS011;3800;48.922;9.444;2023-03-15T01:15:12;8.00;;;7.10;;
7517;SDS011;3800;48.922;9.444;2023-03-15T01:17:40;8.80;;;7.10;;
7517;SDS011;3800;48.922;9.444;2023-03-15T01:20:10;8.93;;;7.30;;
7517;SDS011;3800;48.922;9.444;2023-03-15T01:22:38;9.97;;;8.00;;
7517;SDS011;3800;48.922;9.444;2023-03-15T01:25:06;9.37;;;8.23;;
7517;SDS011;3800;48.922;9.444;2023-03-15T01:27:34;11.67;;;9.07;;
7517;SDS011;3800;48.922;9.444;2023-03-15T01:30:02;13.30;;;9.30;;
7517;SDS011;3800;48.922;9.444;2023-03-15T01:32:30;11.00;;;9.13;;
7517;SDS011;3800;48.922;9.444;2023-03-15T01:34:58;12.10;;;9.30;;
7517;SDS011;3800;48.922;9.444;2023-03-15T01:37:25;11.83;;;9.80;;
7517;SDS011;3800;48.922;9.444;2023-03-15T01:39:53;14.97;;;9.70;;
7517;SDS011;3800;48.922;9.444;2023-03-15T01:42:21;12.30;;;9.60;;
7517;SDS011;3800;48.922;9.444;2023-03-15T01:44:50;15.87;;;10.87;;
7517;SDS011;3800;48.922;9.444;2023-03-15T01:47:22;15.10;;;10.27;;
7517;SDS011;3800;48.922;9.444;2023-03-15T01:49:52;12.07;;;10.37;;
7517;SDS011;3800;48.922;9.444;2023-03-15T01:52:20;17.07;;;11.03;;
7517;SDS011;3800;48.922;9.444;2023-03-15T01:54:54;16.90;;;11.60;;
7517;SDS011;3800;48.922;9.444;2023-03-15T01:57:26;18.97;;;12.30;;
7517;SDS011;3800;48.922;9.444;2023-03-15T01:59:57;15.83;;;11.73;;
7517;SDS011;3800;48.922;9.444;2023-03-15T02:02:23;21.57;;;12.13;;
7517;SDS011;3800;48.922;9.444;2023-03-15T02:04:54;16.83;;;10.63;;
7517;SDS011;3800;48.922;9.444;2023-03-15T02:07:19;13.67;;;10.10;;
7517;SDS011;3800;48.922;9.444;2023-03-15T02:10:06;14.73;;;9.73;;
7517;SDS011;3800;48.922;9.444;2023-03-15T02:12:34;13.53;;;10.47;;
7517;SDS011;3800;48.922;9.444;2023-03-15T02:15:03;16.57;;;9.90;;
7517;SDS011;3800;48.922;9.444;2023-03-15T02:17:34;12.07;;;9.70;;
7517;SDS011;3800;48.922;9.444;2023-03-15T02:20:06;14.67;;;10.40;;
7517;SDS011;3800;48.922;9.444;2023-03-15T02:22:46;14.23;;;10.13;;
7517;SDS011;3800;48.922;9.444;2023-03-15T02:25:17;12.30;;;8.87;;
7517;SDS011;3800;48.922;9.444;2023-03-15T02:27:44;14.40;;;9.40;;
7517;SDS011;3800;48.922;9.444;2023-03-15T02:30:11;15.63;;;8.73;;
7517;SDS011;3800;48.922;9.444;2023-03-15T02:32:40;11.77;;;7.97;;
7517;SDS011;3800;48.922;9.444;2023-03-15T02:35:08;12.13;;;7.63;;
7517;SDS011;3800;48.922;9.444;2023-03-15T02:37:36;10.20;;;7.20;;
7517;SDS011;3800;48.922;9.444;2023-03-15T02:40:12;15.60;;;7.17;;
7517;SDS011;3800;48.922;9.444;2023-03-15T02:42:41;11.53;;;6.27;;
7517;SDS011;3800;48.922;9.444;2023-03-15T02:45:08;8.33;;;6.00;;
7517;SDS011;3800;48.922;9.444;2023-03-15T02:47:37;7.63;;;5.77;;
7517;SDS011;3800;48.922;9.444;2023-03-15T02:50:05;9.70;;;5.77;;
7517;SDS011;3800;48.922;9.444;2023-03-15T02:52:34;10.40;;;6.10;;
7517;SDS011;3800;48.922;9.444;2023-03-15T02:55:02;7.97;;;5.90;;
7517;SDS011;3800;48.922;9.444;2023-03-15T02:57:30;9.50;;;6.47;;
7517;SDS011;3800;48.922;9.444;2023-03-15T02:59:57;8.97;;;6.37;;
7517;SDS011;3800;48.922;9.444;2023-03-15T03:02:26;8.07;;;5.80;;
7517;SDS011;3800;48.922;9.444;2023-03-15T03:04:53;9.83;;;6.23;;
7517;SDS011;3800;48.922;9.444;2023-03-15T03:07:21;9.43;;;5.83;;
7517;SDS011;3800;48.922;9.444;2023-03-15T03:09:49;11.53;;;5.50;;
7517;SDS011;3800;48.922;9.444;2023-03-15T03:12:17;7.13;;;5.80;;
7517;SDS011;3800;48.922;9.444;2023-03-15T03:14:44;8.13;;;5.43;;
7517;SDS011;3800;48.922;9.444;2023-03-15T03:17:13;5.93;;;4.93;;
7517;SDS011;3800;48.922;9.444;2023-03-15T03:19:41;10.00;;;5.50;;
7517;SDS011;3800;48.922;9.444;2023-03-15T03:22:09;10.60;;;5.43;;
7517;SDS011;3800;48.922;9.444;2023-03-15T03:24:36;9.03;;;4.93;;
7517;SDS011;3800;48.922;9.444;2023-03-15T03:27:04;7.77;;;5.57;;
7517;SDS011;3800;48.922;9.444;2023-03-15T03:29:32;7.63;;;5.17;;
7517;SDS011;3800;48.922;9.444;2023-03-15T03:32:00;8.37;;;5.40;;
7517;SDS011;3800;48.922;9.444;2023-03-15T03:34:28;8.93;;;5.57;;
7517;SDS011;3800;48.922;9.444;2023-03-15T03:36:57;9.37;;;6.20;;
7517;SDS011;3800;48.922;9.444;2023-03-15T03:39:24;10.47;;;6.40;;
7517;SDS011;3800;48.922;9.444;2023-03-15T03:41:52;10.83;;;6.43;;
7517;SDS011;3800;48.922;9.444;2023-03-15T03:44:20;8.37;;;5.93;;
7517;SDS011;3800;48.922;9.444;2023-03-15T03:46:47;8.93;;;5.67;;
7517;SDS011;3800;48.922;9.444;2023-03-15T03:49:15;12.83;;;6.60;;
7517;SDS011;3800;48.922;9.444;2023-03-15T03:51:43;8.87;;;5.80;;
7517;SDS011;3800;48.922;9.444;2023-03-15T03:54:12;10.60;;;6.40;;
7517;SDS011;3800;48.922;9.444;2023-03-15T03:56:39;9.93;;;5.77;;
7517;SDS011;3800;48.922;9.444;2023-03-15T03:59:07;6.97;;;5.53;;
7517;SDS011;3800;48.922;9.444;2023-03-15T04:01:36;9.87;;;5.50;;
7517;SDS011;3800;48.922;9.444;2023-03-15T04:04:04;6.97;;;5.30;;
7517;SDS011;3800;48.922;9.444;2023-03-15T04:06:33;8.07;;;5.83;;
7517;SDS011;3800;48.922;9.444;2023-03-15T04:09:01;7.37;;;5.17;;
7517;SDS011;3800;48.922;9.444;2023-03-15T04:11:28;9.50;;;4.97;;
7517;SDS011;3800;48.922;9.444;2023-03-15T04:13:56;6.70;;;5.27;;
7517;SDS011;3800;48.922;9.444;2023-03-15T04:16:24;7.00;;;5.17;;
7517;SDS011;3800;48.922;9.444;2023-03-15T04:18:51;7.20;;;5.27;;
7517;SDS011;3800;48.922;9.444;2023-03-15T04:21:19;9.00;;;5.40;;
7517;SDS011;3800;48.922;9.444;2023-03-15T04:23:48;8.23;;;5.27;;
7517;SDS011;3800;48.922;9.444;2023-03-15T04:26:16;7.33;;;5.33;;
7517;SDS011;3800;48.922;9.444;2023-03-15T04:28:43;6.33;;;5.40;;
7517;SDS011;3800;48.922;9.444;2023-03-15T04:31:13;7.73;;;5.33;;
7517;SDS011;3800;48.922;9.444;2023-03-15T04:33:42;5.90;;;5.30;;
7517;SDS011;3800;48.922;9.444;2023-03-15T04:36:10;6.20;;;4.83;;
7517;SDS011;3800;48.922;9.444;2023-03-15T04:38:38;8.37;;;5.07;;
7517;SDS011;3800;48.922;9.444;2023-03-15T04:41:06;7.77;;;4.80;;
7517;SDS011;3800;48.922;9.444;2023-03-15T04:43:34;7.77;;;5.47;;
7517;SDS011;3800;48.922;9.444;2023-03-15T04:46:01;7.10;;;4.80;;
7517;SDS011;3800;48.922;9.444;2023-03-15T04:48:29;8.20;;;5.77;;
7517;SDS011;3800;48.922;9.444;2023-03-15T04:50:57;10.40;;;6.10;;
7517;SDS011;3800;48.922;9.444;2023-03-15T04:53:26;6.03;;;5.17;;
7517;SDS011;3800;48.922;9.444;2023-03-15T04:55:54;7.43;;;4.43;;
7517;SDS011;3800;48.922;9.444;2023-03-15T04:58:21;8.00;;;4.70;;
7517;SDS011;3800;48.922;9.444;2023-03-15T05:00:49;4.80;;;4.30;;
7517;SDS011;3800;48.922;9.444;2023-03-15T05:03:17;4.97;;;3.80;;
7517;SDS011;3800;48.922;9.444;2023-03-15T05:05:44;5.13;;;4.30;;
7517;SDS011;3800;48.922;9.444;2023-03-15T05:08:12;9.80;;;4.30;;
7517;SDS011;3800;48.922;9.444;2023-03-15T05:10:40;5.83;;;4.10;;
7517;SDS011;3800;48.922;9.444;2023-03-15T05:13:08;9.10;;;4.33;;
7517;SDS011;3800;48.922;9.444;2023-03-15T05:15:36;7.90;;;4.00;;
7517;SDS011;3800;48.922;9.444;2023-03-15T05:18:03;6.87;;;4.47;;
7517;SDS011;3800;48.922;9.444;2023-03-15T05:20:31;7.90;;;4.33;;
7517;SDS011;3800;48.922;9.444;2023-03-15T05:22:59;8.43;;;4.33;;
7517;SDS011;3800;48.922;9.444;2023-03-15T05:25:27;7.47;;;4.37;;
7517;SDS011;3800;48.922;9.444;2023-03-15T05:27:55;4.37;;;3.97;;
7517;SDS011;3800;48.922;9.444;2023-03-15T05:30:24;6.53;;;4.27;;
7517;SDS011;3800;48.922;9.444;2023-03-15T05:32:51;8.50;;;4.70;;
7517;SDS011;3800;48.922;9.444;2023-03-15T05:35:19;7.10;;;4.37;;
7517;SDS011;3800;48.922;9.444;2023-03-15T05:37:46;4.93;;;4.43;;
7517;SDS011;3800;48.922;9.444;2023-03-15T05:40:14;4.93;;;4.27;;
7517;SDS011;3800;48.922;9.444;2023-03-15T05:42:42;9.33;;;4.53;;
7517;SDS011;3800;48.922;9.444;2023-03-15T05:45:11;5.50;;;4.60;;
7517;SDS011;3800;48.922;9.444;2023-03-15T05:47:39;5.67;;;4.90;;
7517;SDS011;3800;48.922;9.444;2023-03-15T05:50:06;7.67;;;5.23;;
7517;SDS011;3800;48.922;9.444;2023-03-15T05:52:35;6.77;;;4.83;;
7517;SDS011;3800;48.922;9.444;2023-03-15T05:55:02;6.03;;;4.87;;
7517;SDS011;3800;48.922;9.444;2023-03-15T05:57:30;8.97;;;5.43;;
7517;SDS011;3800;48.922;9.444;2023-03-15T05:59:58;8.53;;;5.47;;
7517;SDS011;3800;48.922;9.444;2023-03-15T06:02:25;10.50;;;5.70;;
7517;SDS011;3800;48.922;9.444;2023-03-15T06:04:57;8.40;;;5.97;;
7517;SDS011;3800;48.922;9.444;2023-03-15T06:07:25;10.83;;;5.30;;
7517;SDS011;3800;48.922;9.444;2023-03-15T06:09:53;11.13;;;6.37;;
7517;SDS011;3800;48.922;9.444;2023-03-15T06:12:21;10.23;;;6.57;;
7517;SDS011;3800;48.922;9.444;2023-03-15T06:14:48;12.83;;;7.63;;
7517;SDS011;3800;48.922;9.444;2023-03-15T06:17:16;13.77;;;7.83;;
7517;SDS011;3800;48.922;9.444;2023-03-15T06:19:44;10.93;;;6.53;;
7517;SDS011;3800;48.922;9.444;2023-03-15T06:22:13;12.70;;;7.93;;
7517;SDS011;3800;48.922;9.444;2023-03-15T06:24:41;12.27;;;7.60;;
7517;SDS011;3800;48.922;9.444;2023-03-15T06:27:09;9.13;;;5.97;;
7517;SDS011;3800;48.922;9.444;2023-03-15T06:29:36;9.00;;;5.40;;
7517;SDS011;3800;48.922;9.444;2023-03-15T06:32:04;8.27;;;5.43;;
7517;SDS011;3800;48.922;9.444;2023-03-15T06:34:32;9.37;;;5.40;;
7517;SDS011;3800;48.922;9.444;2023-03-15T06:37:00;7.27;;;4.93;;
7517;SDS011;3800;48.922;9.444;2023-03-15T06:39:28;7.70;;;5.10;;
7517;SDS011;3800;48.922;9.444;2023-03-15T06:41:55;7.73;;;4.97;;
7517;SDS011;3800;48.922;9.444;2023-03-15T06:44:23;9.50;;;5.90;;
7517;SDS011;3800;48.922;9.444;2023-03-15T06:46:51;8.10;;;5.60;;
7517;SDS011;3800;48.922;9.444;2023-03-15T06:49:18;10.30;;;6.23;;
7517;SDS011;3800;48.922;9.444;2023-03-15T06:51:46;11.17;;;6.13;;
7517;SDS011;3800;48.922;9.444;2023-03-15T06:54:14;13.93;;;6.43;;
7517;SDS011;3800;48.922;9.444;2023-03-15T06:56:41;7.13;;;5.47;;
7517;SDS011;3800;48.922;9.444;2023-03-15T06:59:09;8.00;;;4.90;;
7517;SDS011;3800;48.922;9.444;2023-03-15T07:01:36;12.70;;;6.10;;
7517;SDS011;3800;48.922;9.444;2023-03-15T07:04:04;10.47;;;5.97;;
7517;SDS011;3800;48.922;9.444;2023-03-15T07:06:32;9.37;;;7.27;;
7517;SDS011;3800;48.922;9.444;2023-03-15T07:09:00;10.87;;;6.17;;
7517;SDS011;3800;48.922;9.444;2023-03-15T07:11:27;10.67;;;5.60;;
7517;SDS011;3800;48.922;9.444;2023-03-15T07:13:55;8.23;;;5.10;;
7517;SDS011;3800;48.922;9.444;2023-03-15T07:16:26;10.57;;;4.80;;
7517;SDS011;3800;48.922;9.444;2023-03-15T07:18:53;8.50;;;4.50;;
7517;SDS011;3800;48.922;9.444;2023-03-15T07:21:21;7.07;;;4.23;;
7517;SDS011;3800;48.922;9.444;2023-03-15T07:23:49;10.10;;;4.17;;
7517;SDS011;3800;48.922;9.444;2023-03-15T07:26:16;8.60;;;4.40;;
7517;SDS011;3800;48.922;9.444;2023-03-15T07:28:45;11.10;;;4.63;;
7517;SDS011;3800;48.922;9.444;2023-03-15T07:31:13;9.50;;;4.70;;
7517;SDS011;3800;48.922;9.444;2023-03-15T07:33:40;8.10;;;4.43;;
7517;SDS011;3800;48.922;9.444;2023-03-15T07:36:08;9.33;;;4.73;;
7517;SDS011;3800;48.922;9.444;2023-03-15T07:38:36;10.77;;;4.67;;
7517;SDS011;3800;48.922;9.444;2023-03-15T07:41:04;8.03;;;4.67;;
7517;SDS011;3800;48.922;9.444;2023-03-15T07:43:31;12.17;;;4.87;;
7517;SDS011;3800;48.922;9.444;2023-03-15T07:46:00;10.03;;;4.30;;
7517;SDS011;3800;48.922;9.444;2023-03-15T07:48:27;10.30;;;4.37;;
7517;SDS011;3800;48.922;9.444;2023-03-15T07:50:55;9.57;;;4.30;;
7517;SDS011;3800;48.922;9.444;2023-03-15T07:53:23;8.97;;;3.90;;
7517;SDS011;3800;48.922;9.444;2023-03-15T07:55:50;12.17;;;4.27;;
7517;SDS011;3800;48.922;9.444;2023-03-15T07:58:18;11.27;;;4.17;;
7517;SDS011;3800;48.922;9.444;2023-03-15T08:00:46;10.57;;;4.43;;
7517;SDS011;3800;48.922;9.444;2023-03-15T08:03:14;9.97;;;4.37;;
7517;SDS011;3800;48.922;9.444;2023-03-15T08:05:42;10.70;;;4.30;;
7517;SDS011;3800;48.922;9.444;2023-03-15T08:08:10;6.93;;;3.93;;
7517;SDS011;3800;48.922;9.444;2023-03-15T08:10:38;12.73;;;4.07;;
7517;SDS011;3800;48.922;9.444;2023-03-15T08:13:05;9.57;;;4.10;;
7517;SDS011;3800;48.922;9.444;2023-03-15T08:15:33;10.73;;;3.90;;
7517;SDS011;3800;48.922;9.444;2023-03-15T08:18:01;10.00;;;3.70;;
7517;SDS011;3800;48.922;9.444;2023-03-15T08:20:29;7.57;;;3.77;;
7517;SDS011;3800;48.922;9.444;2023-03-15T08:22:56;8.37;;;3.33;;
7517;SDS011;3800;48.922;9.444;2023-03-15T08:25:24;8.23;;;4.00;;
7517;SDS011;3800;48.922;9.444;2023-03-15T08:27:51;8.17;;;3.60;;
7517;SDS011;3800;48.922;9.444;2023-03-15T08:30:19;10.50;;;3.87;;
7517;SDS011;3800;48.922;9.444;2023-03-15T08:32:47;6.83;;;3.20;;
7517;SDS011;3800;48.922;9.444;2023-03-15T08:35:15;6.93;;;3.13;;
7517;SDS011;3800;48.922;9.444;2023-03-15T08:37:43;7.30;;;2.83;;
7517;SDS011;3800;48.922;9.444;2023-03-15T08:40:12;8.07;;;2.73;;
7517;SDS011;3800;48.922;9.444;2023-03-15T08:42:39;6.40;;;2.73;;
7517;SDS011;3800;48.922;9.444;2023-03-15T08:45:07;4.83;;;2.60;;
7517;SDS011;3800;48.922;9.444;2023-03-15T08:47:35;7.17;;;2.70;;
7517;SDS011;3800;48.922;9.444;2023-03-15T08:50:03;8.23;;;2.77;;
7517;SDS011;3800;48.922;9.444;2023-03-15T08:52:32;10.83;;;3.30;;
7517;SDS011;3800;48.922;9.444;2023-03-15T08:54:59;9.37;;;3.27;;
7517;SDS011;3800;48.922;9.444;2023-03-15T08:57:27;5.87;;;2.50;;
7517;SDS011;3800;48.922;9.444;2023-03-15T08:59:55;3.10;;;2.43;;
7517;SDS011;3800;48.922;9.444;2023-03-15T09:02:24;7.27;;;2.30;;
7517;SDS011;3800;48.922;9.444;2023-03-15T09:04:51;6.97;;;2.57;;
7517;SDS011;3800;48.922;9.444;2023-03-15T09:07:20;7.93;;;2.73;;
7517;SDS011;3800;48.922;9.444;2023-03-15T09:09:48;8.80;;;2.80;;
7517;SDS011;3800;48.922;9.444;2023-03-15T09:12:19;7.60;;;2.43;;
7517;SDS011;3800;48.922;9.444;2023-03-15T09:14:47;7.70;;;2.80;;
7517;SDS011;3800;48.922;9.444;2023-03-15T09:17:17;3.80;;;2.23;;
7517;SDS011;3800;48.922;9.444;2023-03-15T09:19:45;6.40;;;2.87;;
7517;SDS011;3800;48.922;9.444;2023-03-15T09:22:13;8.63;;;2.80;;
7517;SDS011;3800;48.922;9.444;2023-03-15T09:24:40;7.10;;;2.60;;
7517;SDS011;3800;48.922;9.444;2023-03-15T09:27:08;5.20;;;2.50;;
7517;SDS011;3800;48.922;9.444;2023-03-15T09:29:36;4.50;;;2.37;;
7517;SDS011;3800;48.922;9.444;2023-03-15T09:32:03;6.07;;;2.70;;
7517;SDS011;3800;48.922;9.444;2023-03-15T09:34:31;6.20;;;2.30;;
7517;SDS011;3800;48.922;9.444;2023-03-15T09:36:59;5.17;;;2.40;;
7517;SDS011;3800;48.922;9.444;2023-03-15T09:39:28;4.97;;;2.17;;
7517;SDS011;3800;48.922;9.444;2023-03-15T09:41:55;8.80;;;2.50;;
7517;SDS011;3800;48.922;9.444;2023-03-15T09:44:30;9.00;;;3.13;;
7517;SDS011;3800;48.922;9.444;2023-03-15T09:47:02;4.37;;;1.93;;
7517;SDS011;3800;48.922;9.444;2023-03-15T09:50:02;5.17;;;2.10;;
7517;SDS011;3800;48.922;9.444;2023-03-15T09:52:28;5.13;;;1.90;;
7517;SDS011;3800;48.922;9.444;2023-03-15T09:54:56;4.63;;;2.10;;
7517;SDS011;3800;48.922;9.444;2023-03-15T09:57:25;5.70;;;2.20;;
7517;SDS011;3800;48.922;9.444;2023-03-15T10:00:11;7.73;;;1.93;;
7517;SDS011;3800;48.922;9.444;2023-03-15T10:02:38;5.47;;;2.10;;
7517;SDS011;3800;48.922;9.444;2023-03-15T10:05:07;4.97;;;2.33;;
7517;SDS011;3800;48.922;9.444;2023-03-15T10:07:34;7.10;;;2.07;;
7517;SDS011;3800;48.922;9.444;2023-03-15T10:10:01;7.53;;;2.93;;
7517;SDS011;3800;48.922;9.444;2023-03-15T10:12:30;6.43;;;2.27;;
7517;SDS011;3800;48.922;9.444;2023-03-15T10:15:04;9.23;;;2.80;;
7517;SDS011;3800;48.922;9.444;2023-03-15T10:17:40;6.23;;;2.63;;
7517;SDS011;3800;48.922;9.444;2023-03-15T10:20:15;8.37;;;2.33;;
7517;SDS011;3800;48.922;9.444;2023-03-15T10:22:47;7.23;;;2.67;;
7517;SDS011;3800;48.922;9.444;2023-03-15T10:25:18;5.00;;;2.70;;
7517;SDS011;3800;48.922;9.444;2023-03-15T10:27:55;8.53;;;3.00;;
7517;SDS011;3800;48.922;9.444;2023-03-15T10:30:24;7.13;;;2.10;;
7517;SDS011;3800;48.922;9.444;2023-03-15T10:32:53;5.10;;;2.80;;
7517;SDS011;3800;48.922;9.444;2023-03-15T10:35:29;5.83;;;1.97;;
7517;SDS011;3800;48.922;9.444;2023-03-15T10:37:57;4.00;;;2.00;;
7517;SDS011;3800;48.922;9.444;2023-03-15T10:43:11;3.80;;;1.93;;
7517;SDS011;3800;48.922;9.444;2023-03-15T10:45:59;5.80;;;2.03;;
7517;SDS011;3800;48.922;9.444;2023-03-15T10:48:27;5.50;;;2.40;;
7517;SDS011;3800;48.922;9.444;2023-03-15T10:50:54;3.23;;;1.97;;
7517;SDS011;3800;48.922;9.444;2023-03-15T10:53:22;7.53;;;2.07;;
7517;SDS011;3800;48.922;9.444;2023-03-15T10:55:57;6.27;;;2.23;;
7517;SDS011;3800;48.922;9.444;2023-03-15T10:58:19;5.53;;;2.30;;
7517;SDS011;3800;48.922;9.444;2023-03-15T11:00:48;7.43;;;2.10;;
7517;SDS011;3800;48.922;9.444;2023-03-15T11:03:19;6.77;;;2.33;;
7517;SDS011;3800;48.922;9.444;2023-03-15T11:05:48;4.60;;;1.83;;
7517;SDS011;3800;48.922;9.444;2023-03-15T11:08:16;8.70;;;2.17;;
7517;SDS011;3800;48.922;9.444;2023-03-15T11:10:43;6.37;;;2.30;;
7517;SDS011;3800;48.922;9.444;2023-03-15T11:13:18;5.43;;;1.97;;
7517;SDS011;3800;48.922;9.444;2023-03-15T11:15:48;4.00;;;1.97;;
7517;SDS011;3800;48.922;9.444;2023-03-15T11:18:16;4.40;;;1.70;;
7517;SDS011;3800;48.922;9.444;2023-03-15T11:20:43;4.30;;;2.50;;
7517;SDS011;3800;48.922;9.444;2023-03-15T11:23:13;4.70;;;1.83;;
7517;SDS011;3800;48.922;9.444;2023-03-15T11:25:39;9.50;;;2.37;;
7517;SDS011;3800;48.922;9.444;2023-03-15T11:28:10;5.17;;;2.10;;
7517;SDS011;3800;48.922;9.444;2023-03-15T11:30:34;5.87;;;2.33;;
7517;SDS011;3800;48.922;9.444;2023-03-15T11:33:05;5.40;;;2.30;;
7517;SDS011;3800;48.922;9.444;2023-03-15T11:35:34;5.10;;;1.93;;
7517;SDS011;3800;48.922;9.444;2023-03-15T11:38:03;8.37;;;2.70;;
7517;SDS011;3800;48.922;9.444;2023-03-15T11:40:32;4.97;;;2.20;;
7517;SDS011;3800;48.922;9.444;2023-03-15T11:43:04;3.97;;;1.80;;
7517;SDS011;3800;48.922;9.444;2023-03-15T11:45:33;5.20;;;2.00;;
7517;SDS011;3800;48.922;9.444;2023-03-15T11:48:03;4.20;;;1.93;;
7517;SDS011;3800;48.922;9.444;2023-03-15T11:50:30;3.17;;;1.53;;
7517;SDS011;3800;48.922;9.444;2023-03-15T11:52:57;4.07;;;1.60;;
7517;SDS011;3800;48.922;9.444;2023-03-15T11:55:26;2.43;;;1.50;;
7517;SDS011;3800;48.922;9.444;2023-03-15T11:57:55;3.53;;;1.80;;
7517;SDS011;3800;48.922;9.444;2023-03-15T12:03:38;3.47;;;1.63;;
7517;SDS011;3800;48.922;9.444;2023-03-15T12:06:17;3.37;;;1.70;;
7517;SDS011;3800;48.922;9.444;2023-03-15T12:08:55;3.93;;;2.07;;
7517;SDS011;3800;48.922;9.444;2023-03-15T12:11:35;5.93;;;2.30;;
7517;SDS011;3800;48.922;9.444;2023-03-15T12:14:20;5.40;;;2.40;;
7517;SDS011;3800;48.922;9.444;2023-03-15T12:16:38;3.93;;;2.10;;
7517;SDS011;3800;48.922;9.444;2023-03-15T12:19:23;4.83;;;2.20;;
7517;SDS011;3800;48.922;9.444;2023-03-15T12:21:52;5.97;;;2.57;;
7517;SDS011;3800;48.922;9.444;2023-03-15T12:24:22;2.80;;;2.00;;
7517;SDS011;3800;48.922;9.444;2023-03-15T12:29:29;4.43;;;2.27;;
7517;SDS011;3800;48.922;9.444;2023-03-15T12:31:58;3.83;;;2.37;;
7517;SDS011;3800;48.922;9.444;2023-03-15T12:34:28;5.97;;;2.77;;
7517;SDS011;3800;48.922;9.444;2023-03-15T12:37:00;5.40;;;2.60;;
7517;SDS011;3800;48.922;9.444;2023-03-15T12:39:36;5.27;;;3.03;;
7517;SDS011;3800;48.922;9.444;2023-03-15T12:50:49;4.90;;;3.57;;
7517;SDS011;3800;48.922;9.444;2023-03-15T12:53:20;5.67;;;3.30;;
7517;SDS011;3800;48.922;9.444;2023-03-15T12:55:49;5.07;;;3.20;;
7517;SDS011;3800;48.922;9.444;2023-03-15T12:58:18;7.57;;;3.40;;
7517;SDS011;3800;48.922;9.444;2023-03-15T13:00:45;6.17;;;3.67;;
7517;SDS011;3800;48.922;9.444;2023-03-15T13:03:13;4.37;;;3.10;;
7517;SDS011;3800;48.922;9.444;2023-03-15T13:08:19;5.50;;;3.10;;
7517;SDS011;3800;48.922;9.444;2023-03-15T13:10:55;7.37;;;3.40;;
7517;SDS011;3800;48.922;9.444;2023-03-15T13:13:29;6.50;;;3.80;;
7517;SDS011;3800;48.922;9.444;2023-03-15T13:18:27;8.40;;;3.30;;
7517;SDS011;3800;48.922;9.444;2023-03-15T13:23:43;8.10;;;4.20;;
7517;SDS011;3800;48.922;9.444;2023-03-15T13:26:16;7.10;;;3.90;;
7517;SDS011;3800;48.922;9.444;2023-03-15T13:28:47;6.67;;;3.63;;
7517;SDS011;3800;48.922;9.444;2023-03-15T13:31:20;7.60;;;3.50;;
7517;SDS011;3800;48.922;9.444;2023-03-15T13:33:50;3.93;;;2.90;;
7517;SDS011;3800;48.922;9.444;2023-03-15T13:36:18;3.87;;;2.83;;
7517;SDS011;3800;48.922;9.444;2023-03-15T13:38:48;5.83;;;3.10;;
7517;SDS011;3800;48.922;9.444;2023-03-15T13:41:26;5.33;;;3.23;;
7517;SDS011;3800;48.922;9.444;2023-03-15T13:43:55;4.03;;;3.30;;
7517;SDS011;3800;48.922;9.444;2023-03-15T13:46:23;7.23;;;2.90;;
7517;SDS011;3800;48.922;9.444;2023-03-15T13:48:51;4.13;;;2.73;;
7517;SDS011;3800;48.922;9.444;2023-03-15T13:51:20;5.17;;;2.77;;
7517;SDS011;3800;48.922;9.444;2023-03-15T13:53:47;5.03;;;2.50;;
7517;SDS011;3800;48.922;9.444;2023-03-15T13:56:17;3.73;;;2.70;;
7517;SDS011;3800;48.922;9.444;2023-03-15T13:58:43;8.30;;;3.17;;
7517;SDS011;3800;48.922;9.444;2023-03-15T14:01:11;2.60;;;2.40;;
7517;SDS011;3800;48.922;9.444;2023-03-15T14:03:40;4.00;;;2.80;;
7517;SDS011;3800;48.922;9.444;2023-03-15T14:06:11;5.67;;;2.77;;
7517;SDS011;3800;48.922;9.444;2023-03-15T14:08:39;5.97;;;2.90;;
7517;SDS011;3800;48.922;9.444;2023-03-15T14:11:07;4.43;;;2.93;;
7517;SDS011;3800;48.922;9.444;2023-03-15T14:16:14;4.10;;;2.57;;
7517;SDS011;3800;48.922;9.444;2023-03-15T14:18:42;3.80;;;2.57;;
7517;SDS011;3800;48.922;9.444;2023-03-15T14:21:13;2.80;;;2.27;;
7517;SDS011;3800;48.922;9.444;2023-03-15T14:23:41;4.43;;;2.40;;
7517;SDS011;3800;48.922;9.444;2023-03-15T14:26:12;4.47;;;2.80;;
7517;SDS011;3800;48.922;9.444;2023-03-15T14:28:46;2.33;;;2.03;;
7517;SDS011;3800;48.922;9.444;2023-03-15T14:31:18;3.87;;;2.03;;
7517;SDS011;3800;48.922;9.444;2023-03-15T14:33:41;3.00;;;1.90;;
7517;SDS011;3800;48.922;9.444;2023-03-15T14:38:51;2.17;;;1.90;;
7517;SDS011;3800;48.922;9.444;2023-03-15T14:41:22;2.60;;;1.70;;
7517;SDS011;3800;48.922;9.444;2023-03-15T14:43:51;2.27;;;1.80;;
7517;SDS011;3800;48.922;9.444;2023-03-15T14:46:19;2.37;;;1.70;;
7517;SDS011;3800;48.922;9.444;2023-03-15T14:48:47;2.33;;;2.10;;
7517;SDS011;3800;48.922;9.444;2023-03-15T14:51:18;2.23;;;1.90;;
7517;SDS011;3800;48.922;9.444;2023-03-15T14:53:45;5.53;;;2.47;;
7517;SDS011;3800;48.922;9.444;2023-03-15T14:56:13;4.63;;;2.40;;
7517;SDS011;3800;48.922;9.444;2023-03-15T14:58:40;4.73;;;3.03;;
7517;SDS011;3800;48.922;9.444;2023-03-15T15:01:09;3.80;;;2.30;;
7517;SDS011;3800;48.922;9.444;2023-03-15T15:03:38;3.07;;;2.10;;
7517;SDS011;3800;48.922;9.444;2023-03-15T15:06:06;2.97;;;2.47;;
7517;SDS011;3800;48.922;9.444;2023-03-15T15:08:34;5.67;;;2.37;;
7517;SDS011;3800;48.922;9.444;2023-03-15T15:11:01;3.10;;;2.00;;
7517;SDS011;3800;48.922;9.444;2023-03-15T15:13:29;5.23;;;2.93;;
7517;SDS011;3800;48.922;9.444;2023-03-15T15:15:57;4.13;;;2.97;;
7517;SDS011;3800;48.922;9.444;2023-03-15T15:18:26;3.43;;;2.70;;
7517;SDS011;3800;48.922;9.444;2023-03-15T15:20:53;3.00;;;2.30;;
7517;SDS011;3800;48.922;9.444;2023-03-15T15:23:21;2.40;;;1.90;;
7517;SDS011;3800;48.922;9.444;2023-03-15T15:25:48;2.30;;;2.10;;
7517;SDS011;3800;48.922;9.444;2023-03-15T15:28:16;2.57;;;1.90;;
7517;SDS011;3800;48.922;9.444;2023-03-15T15:30:44;2.37;;;2.00;;
7517;SDS011;3800;48.922;9.444;2023-03-15T15:33:12;2.30;;;2.10;;
7517;SDS011;3800;48.922;9.444;2023-03-15T15:35:39;2.73;;;1.90;;
7517;SDS011;3800;48.922;9.444;2023-03-15T15:38:08;2.77;;;2.10;;
7517;SDS011;3800;48.922;9.444;2023-03-15T15:40:36;2.73;;;2.27;;
7517;SDS011;3800;48.922;9.444;2023-03-15T15:43:04;3.77;;;2.27;;
7517;SDS011;3800;48.922;9.444;2023-03-15T15:45:31;2.37;;;2.10;;
7517;SDS011;3800;48.922;9.444;2023-03-15T15:48:00;3.43;;;2.40;;
7517;SDS011;3800;48.922;9.444;2023-03-15T15:50:28;2.60;;;2.40;;
7517;SDS011;3800;48.922;9.444;2023-03-15T15:52:56;2.57;;;2.37;;